createdAt,value
2022-09-23T00:01:39.238Z,6.97
2022-09-23T00:04:07.212Z,6.96
2022-09-23T00:06:35.463Z,6.96
2022-09-23T00:09:04.016Z,6.96
2022-09-23T00:11:31.832Z,6.95
2022-09-23T00:14:25.762Z,6.96
2022-09-23T00:16:53.608Z,6.95
2022-09-23T00:19:21.969Z,6.95
2022-09-23T00:21:49.835Z,6.94
2022-09-23T00:24:17.633Z,6.93
2022-09-23T00:26:46.006Z,6.91
2022-09-23T00:29:16.316Z,6.88
2022-09-23T00:31:44.089Z,6.86
2022-09-23T00:34:11.979Z,6.85
2022-09-23T00:36:40.515Z,6.84
2022-09-23T00:39:09.823Z,6.82
2022-09-23T00:41:37.616Z,6.79
2022-09-23T00:44:43.374Z,6.75
2022-09-23T00:47:43.287Z,6.70
2022-09-23T00:50:31.314Z,6.64
2022-09-23T00:53:03.654Z,6.57
2022-09-23T00:55:51.636Z,6.52
2022-09-23T00:58:23.787Z,6.46
2022-09-23T01:00:53.912Z,6.42
2022-09-23T01:03:23.133Z,6.39
2022-09-23T01:05:53.114Z,6.37
2022-09-23T01:08:23.787Z,6.35
2022-09-23T01:11:10.465Z,6.31
2022-09-23T01:14:16.456Z,6.29
2022-09-23T01:16:51.211Z,6.27
2022-09-23T01:19:40.876Z,6.26
2022-09-23T01:22:34.885Z,6.24
2022-09-23T01:25:41.161Z,6.24
2022-09-23T01:28:33.926Z,6.23
2022-09-23T01:31:22.779Z,6.24
2022-09-23T01:34:33.936Z,6.25
2022-09-23T01:37:13.575Z,6.27
2022-09-23T01:39:58.366Z,6.28
2022-09-23T01:42:46.337Z,6.29
2022-09-23T01:45:29.258Z,6.29
2022-09-23T01:48:19.311Z,6.28
2022-09-23T01:51:00.799Z,6.28
2022-09-23T01:53:57.922Z,6.27
2022-09-23T01:56:30.686Z,6.26
2022-09-23T01:59:28.654Z,6.24
2022-09-23T02:02:33.785Z,6.21
2022-09-23T02:05:17.914Z,6.17
2022-09-23T02:08:01.490Z,6.15
2022-09-23T02:10:37.631Z,6.13
2022-09-23T02:13:14.104Z,6.10
2022-09-23T02:15:50.446Z,6.08
2022-09-23T02:18:24.832Z,6.07
2022-09-23T02:20:58.048Z,6.07
2022-09-23T02:24:04.212Z,6.04
2022-09-23T02:26:40.008Z,6.01
2022-09-23T02:29:33.848Z,5.96
2022-09-23T02:32:39.521Z,5.92
2022-09-23T02:35:33.337Z,5.89
2022-09-23T02:38:15.341Z,5.84
2022-09-23T02:41:04.903Z,5.80
2022-09-23T02:43:39.396Z,5.76
2022-09-23T02:46:07.613Z,5.69
2022-09-23T02:48:41.691Z,5.68
2022-09-23T02:51:10.243Z,5.65
2022-09-23T02:53:38.399Z,5.63
2022-09-23T02:56:22.148Z,5.61
2022-09-23T02:58:54.547Z,5.58
2022-09-23T03:02:14.369Z,5.56
2022-09-23T03:05:18.369Z,5.53
2022-09-23T03:08:19.177Z,5.50
2022-09-23T03:11:11.902Z,5.48
2022-09-23T03:14:08.767Z,5.45
2022-09-23T03:16:50.942Z,5.42
2022-09-23T03:19:51.405Z,5.39
2022-09-23T03:22:26.111Z,5.37
2022-09-23T03:25:00.328Z,5.35
2022-09-23T03:27:31.406Z,5.35
2022-09-23T03:30:00.609Z,5.36
2022-09-23T03:32:30.115Z,5.35
2022-09-23T03:35:01.245Z,5.34
2022-09-23T03:37:41.622Z,5.32
2022-09-23T03:40:17.974Z,5.32
2022-09-23T03:42:49.357Z,5.30
2022-09-23T03:45:22.060Z,5.27
2022-09-23T03:47:50.599Z,5.25
2022-09-23T03:50:18.546Z,5.22
2022-09-23T03:52:46.496Z,5.20
2022-09-23T03:56:12.503Z,5.19
2022-09-23T03:59:01.757Z,5.17
2022-09-23T04:01:30.602Z,5.15
2022-09-23T04:03:58.710Z,5.15
2022-09-23T04:06:26.935Z,5.15
2022-09-23T04:08:55.078Z,5.15
2022-09-23T04:11:23.072Z,5.14
2022-09-23T04:13:51.016Z,5.14
2022-09-23T04:16:19.185Z,5.13
2022-09-23T04:18:47.193Z,5.11
2022-09-23T04:21:16.081Z,5.10
2022-09-23T04:23:44.306Z,5.08
2022-09-23T04:26:14.380Z,5.07
2022-09-23T04:28:42.678Z,5.05
2022-09-23T04:31:10.791Z,5.03
2022-09-23T04:33:38.962Z,5.01
2022-09-23T04:36:08.831Z,4.99
2022-09-23T04:38:37.117Z,4.98
2022-09-23T04:41:09.828Z,4.98
2022-09-23T04:43:37.805Z,4.97
2022-09-23T04:46:07.529Z,4.96
2022-09-23T04:48:37.565Z,4.97
2022-09-23T04:51:09.160Z,4.97
2022-09-23T04:53:40.085Z,5.00
2022-09-23T04:56:18.368Z,5.04
2022-09-23T04:58:46.898Z,5.13
2022-09-23T05:01:25.480Z,5.23
2022-09-23T05:03:57.991Z,5.36
2022-09-23T05:06:26.551Z,5.49
2022-09-23T05:08:57.662Z,5.63
2022-09-23T05:11:26.972Z,5.79
2022-09-23T05:13:55.497Z,5.96
2022-09-23T05:16:25.300Z,6.12
2022-09-23T05:18:54.014Z,6.29
2022-09-23T05:21:25.109Z,6.46
2022-09-23T05:23:55.688Z,6.64
2022-09-23T05:26:28.604Z,6.86
2022-09-23T05:28:59.285Z,7.12
2022-09-23T05:31:29.810Z,7.31
2022-09-23T05:34:04.869Z,7.54
2022-09-23T05:36:38.697Z,7.87
2022-09-23T05:39:08.991Z,8.15
2022-09-23T05:41:38.626Z,8.42
2022-09-23T05:44:07.532Z,8.65
2022-09-23T05:46:36.961Z,8.84
2022-09-23T05:49:06.109Z,9.12
2022-09-23T05:51:36.315Z,9.39
2022-09-23T05:54:05.929Z,9.62
2022-09-23T05:56:37.334Z,9.84
2022-09-23T05:59:07.007Z,10.08
2022-09-23T06:01:38.161Z,10.33
2022-09-23T06:04:11.048Z,10.56
2022-09-23T06:06:42.145Z,10.76
2022-09-23T06:09:14.849Z,10.97
2022-09-23T06:11:45.386Z,11.12
2022-09-23T06:14:15.067Z,11.22
2022-09-23T06:16:46.131Z,11.40
2022-09-23T06:19:14.192Z,11.62
2022-09-23T06:21:42.193Z,11.82
2022-09-23T06:24:18.011Z,11.99
2022-09-23T06:26:48.234Z,12.17
2022-09-23T06:29:16.437Z,12.37
2022-09-23T06:31:44.572Z,12.54
2022-09-23T06:34:14.546Z,12.68
2022-09-23T06:36:45.931Z,12.85
2022-09-23T06:39:18.183Z,12.98
2022-09-23T06:41:47.058Z,13.08
2022-09-23T06:44:16.126Z,13.18
2022-09-23T06:46:44.758Z,13.26
2022-09-23T06:49:14.358Z,13.34
2022-09-23T06:51:42.886Z,13.40
2022-09-23T06:54:11.298Z,13.39
2022-09-23T06:56:40.422Z,13.41
2022-09-23T06:59:13.306Z,13.48
2022-09-23T07:01:41.947Z,13.50
2022-09-23T07:04:10.989Z,13.50
2022-09-23T07:06:39.448Z,13.56
2022-09-23T07:09:09.165Z,13.61
2022-09-23T07:11:38.092Z,13.66
2022-09-23T07:14:10.522Z,13.69
2022-09-23T07:16:38.801Z,13.72
2022-09-23T07:19:08.488Z,13.75
2022-09-23T07:21:43.739Z,13.79
2022-09-23T07:24:13.335Z,13.78
2022-09-23T07:26:45.655Z,13.81
2022-09-23T07:29:23.452Z,13.87
2022-09-23T07:31:52.684Z,13.93
2022-09-23T07:34:22.312Z,13.98
2022-09-23T07:36:50.387Z,14.02
2022-09-23T07:39:18.466Z,14.00
2022-09-23T07:41:49.927Z,14.04
2022-09-23T07:44:19.282Z,14.07
2022-09-23T07:46:49.959Z,14.14
2022-09-23T07:49:18.685Z,14.23
2022-09-23T07:51:47.049Z,14.29
2022-09-23T07:54:18.595Z,14.38
2022-09-23T07:56:48.392Z,14.42
2022-09-23T07:59:29.005Z,14.48
2022-09-23T08:02:16.495Z,14.58
2022-09-23T08:04:46.621Z,14.69
2022-09-23T08:07:14.740Z,14.76
2022-09-23T08:09:45.812Z,14.83
2022-09-23T08:12:17.193Z,14.90
2022-09-23T08:14:45.728Z,14.95
2022-09-23T08:17:15.473Z,15.02
2022-09-23T08:19:43.850Z,15.08
2022-09-23T08:22:12.400Z,15.14
2022-09-23T08:24:40.577Z,15.17
2022-09-23T08:27:11.184Z,15.19
2022-09-23T08:29:39.919Z,15.27
2022-09-23T08:32:08.228Z,15.36
2022-09-23T08:34:37.795Z,15.44
2022-09-23T08:37:11.264Z,15.49
2022-09-23T08:39:40.266Z,15.55
2022-09-23T08:42:28.344Z,15.64
2022-09-23T08:45:01.024Z,15.73
2022-09-23T08:47:47.906Z,15.79
2022-09-23T08:50:20.748Z,15.87
2022-09-23T08:53:07.996Z,15.90
2022-09-23T08:55:46.373Z,15.96
2022-09-23T08:58:25.295Z,15.99
2022-09-23T09:01:14.400Z,16.08
2022-09-23T09:03:52.175Z,16.16
2022-09-23T09:06:31.782Z,16.20
2022-09-23T09:09:02.751Z,16.25
2022-09-23T09:11:39.114Z,16.31
2022-09-23T09:14:23.913Z,16.36
2022-09-23T09:17:22.162Z,16.40
2022-09-23T09:20:15.066Z,16.43
2022-09-23T09:23:01.215Z,16.45
2022-09-23T09:25:44.658Z,16.51
2022-09-23T09:28:24.866Z,16.61
2022-09-23T09:31:21.474Z,16.68
2022-09-23T09:34:05.817Z,16.73
2022-09-23T09:37:15.229Z,16.74
2022-09-23T09:39:44.357Z,16.75
2022-09-23T09:42:28.937Z,16.82
2022-09-23T09:45:02.530Z,16.86
2022-09-23T09:47:58.109Z,16.91
2022-09-23T09:50:50.965Z,16.96
2022-09-23T09:53:36.343Z,17.03
2022-09-23T09:56:07.405Z,17.12
2022-09-23T09:58:47.846Z,17.21
2022-09-23T10:01:31.079Z,17.29
2022-09-23T10:04:04.342Z,17.38
2022-09-23T10:06:36.935Z,17.52
2022-09-23T10:09:11.075Z,17.65
2022-09-23T10:11:41.328Z,17.66
2022-09-23T10:14:20.439Z,17.69
2022-09-23T10:17:07.103Z,17.79
2022-09-23T10:19:38.705Z,17.89
2022-09-23T10:22:36.326Z,17.99
2022-09-23T10:25:09.963Z,18.09
2022-09-23T10:27:38.953Z,18.09
2022-09-23T10:30:24.974Z,18.22
2022-09-23T10:32:55.191Z,18.36
2022-09-23T10:35:54.247Z,18.38
2022-09-23T10:38:22.383Z,18.48
2022-09-23T10:45:02.809Z,18.76
2022-09-23T10:47:43.315Z,18.92
2022-09-23T10:50:39.955Z,19.04
2022-09-23T10:53:37.313Z,19.17
2022-09-23T10:56:15.550Z,19.30
2022-09-23T10:59:03.495Z,19.34
2022-09-23T11:01:39.460Z,19.33
2022-09-23T11:04:49.472Z,19.32
2022-09-23T11:07:24.018Z,19.28
2022-09-23T11:10:44.909Z,19.26
2022-09-23T11:13:28.135Z,19.40
2022-09-23T11:16:21.426Z,19.40
2022-09-23T11:19:02.304Z,19.50
2022-09-23T11:21:45.996Z,19.64
2022-09-23T11:24:42.185Z,19.75
2022-09-23T11:27:29.106Z,19.82
2022-09-23T11:30:11.514Z,19.88
2022-09-23T11:32:47.449Z,19.94
2022-09-23T11:35:22.466Z,19.95
2022-09-23T11:38:41.192Z,19.95
2022-09-23T11:41:24.399Z,19.91
2022-09-23T11:44:37.268Z,19.88
2022-09-23T11:47:08.362Z,19.91
2022-09-23T11:50:15.101Z,19.93
2022-09-23T11:52:58.739Z,20.05
2022-09-23T11:56:01.272Z,20.10
2022-09-23T11:58:46.515Z,20.02
2022-09-23T12:01:50.206Z,20.05
2022-09-23T12:04:58.734Z,20.12
2022-09-23T12:07:49.313Z,20.04
2022-09-23T12:10:18.873Z,20.09
2022-09-23T12:13:07.598Z,20.17
2022-09-23T12:16:00.660Z,20.22
2022-09-23T12:19:07.276Z,20.21
2022-09-23T12:22:13.736Z,20.20
2022-09-23T12:24:54.319Z,20.20
2022-09-23T12:27:39.886Z,20.28
2022-09-23T12:30:18.006Z,20.27
2022-09-23T12:32:47.518Z,20.22
2022-09-23T12:35:42.014Z,20.06
2022-09-23T12:38:51.705Z,19.87
2022-09-23T12:41:38.934Z,19.72
2022-09-23T12:44:14.063Z,19.67
2022-09-23T12:46:45.743Z,19.73
2022-09-23T12:49:38.020Z,19.80
2022-09-23T12:52:15.565Z,19.92
2022-09-23T12:54:52.156Z,19.97
2022-09-23T12:57:55.818Z,19.85
2022-09-23T13:00:32.168Z,19.70
2022-09-23T13:03:21.818Z,19.60
2022-09-23T13:06:19.369Z,19.50
2022-09-23T13:08:49.758Z,19.35
2022-09-23T13:11:28.868Z,19.28
2022-09-23T13:14:02.381Z,19.20
2022-09-23T13:16:44.003Z,19.12
2022-09-23T13:19:39.042Z,19.07
2022-09-23T13:22:13.222Z,19.00
2022-09-23T13:24:54.395Z,18.96
2022-09-23T13:27:36.279Z,18.99
2022-09-23T13:30:22.350Z,19.05
2022-09-23T13:33:16.495Z,19.11
2022-09-23T13:35:52.790Z,19.17
2022-09-23T13:38:30.066Z,19.21
2022-09-23T13:41:05.585Z,19.18
2022-09-23T13:44:03.308Z,19.12
2022-09-23T13:46:45.949Z,19.08
2022-09-23T13:49:34.216Z,19.04
2022-09-23T13:52:03.823Z,18.99
2022-09-23T13:54:37.677Z,18.94
2022-09-23T13:57:24.149Z,18.99
2022-09-23T13:59:53.853Z,19.16
2022-09-23T14:02:28.954Z,19.32
2022-09-23T14:05:02.279Z,19.38
2022-09-23T14:11:00.723Z,19.41
2022-09-23T14:13:41.527Z,19.42
2022-09-23T14:16:18.498Z,19.28
2022-09-23T14:18:58.745Z,19.13
2022-09-23T14:21:36.113Z,19.03
2022-09-23T14:24:19.509Z,18.90
2022-09-23T14:26:59.299Z,18.74
2022-09-23T14:29:33.456Z,18.58
2022-09-23T14:32:26.086Z,18.49
2022-09-23T14:35:04.083Z,18.40
2022-09-23T14:41:18.696Z,18.21
2022-09-23T14:43:58.865Z,18.13
2022-09-23T14:46:36.222Z,18.09
2022-09-23T14:49:16.570Z,18.03
2022-09-23T14:51:53.498Z,17.98
2022-09-23T14:54:44.122Z,17.94
2022-09-23T14:57:46.207Z,17.88
2022-09-23T15:00:38.165Z,17.80
2022-09-23T15:03:18.027Z,17.75
2022-09-23T15:05:51.498Z,17.72
2022-09-23T15:08:27.292Z,17.70
2022-09-23T15:10:56.103Z,17.67
2022-09-23T15:13:29.097Z,17.62
2022-09-23T15:15:58.825Z,17.58
2022-09-23T15:18:39.795Z,17.52
2022-09-23T15:21:12.151Z,17.47
2022-09-23T15:23:47.630Z,17.45
2022-09-23T15:26:50.166Z,17.43
2022-09-23T15:29:19.332Z,17.42
2022-09-23T15:31:48.194Z,17.39
2022-09-23T15:34:17.255Z,17.37
2022-09-23T15:36:46.661Z,17.35
2022-09-23T15:39:15.719Z,17.33
2022-09-23T15:41:44.608Z,17.27
2022-09-23T15:44:21.922Z,17.22
2022-09-23T15:46:52.204Z,17.20
2022-09-23T15:49:28.695Z,17.14
2022-09-23T15:52:00.535Z,17.05
2022-09-23T15:54:30.227Z,17.00
2022-09-23T15:56:58.810Z,16.94
2022-09-23T15:59:28.729Z,16.88
2022-09-23T16:01:59.490Z,16.80
2022-09-23T16:04:28.630Z,16.74
2022-09-23T16:06:58.574Z,16.71
2022-09-23T16:09:30.924Z,16.66
2022-09-23T16:12:01.888Z,16.57
2022-09-23T16:14:30.022Z,16.48
2022-09-23T16:16:58.803Z,16.44
2022-09-23T16:19:26.828Z,16.39
2022-09-23T16:21:55.412Z,16.33
2022-09-23T16:24:28.938Z,16.27
2022-09-23T16:27:00.175Z,16.21
2022-09-23T16:29:28.235Z,16.15
2022-09-23T16:32:01.203Z,16.09
2022-09-23T16:34:30.421Z,16.00
2022-09-23T16:36:58.700Z,15.90
2022-09-23T16:39:27.402Z,15.80
2022-09-23T16:41:56.673Z,15.71
2022-09-23T16:44:26.960Z,15.63
2022-09-23T16:46:57.871Z,15.54
2022-09-23T16:49:27.449Z,15.44
2022-09-23T16:51:55.735Z,15.35
2022-09-23T16:54:24.699Z,15.24
2022-09-23T16:56:55.234Z,15.12
2022-09-23T16:59:46.268Z,15.03
2022-09-23T17:02:33.051Z,14.93
2022-09-23T17:05:02.370Z,14.83
2022-09-23T17:07:32.131Z,14.73
2022-09-23T17:10:00.317Z,14.62
2022-09-23T17:12:35.258Z,14.53
2022-09-23T17:15:06.351Z,14.44
2022-09-23T17:17:37.642Z,14.34
2022-09-23T17:20:06.963Z,14.25
2022-09-23T17:22:35.314Z,14.14
2022-09-23T17:25:04.428Z,14.05
2022-09-23T17:27:32.667Z,13.94
2022-09-23T17:30:06.175Z,13.85
2022-09-23T17:32:35.790Z,13.76
2022-09-23T17:35:05.366Z,13.67
2022-09-23T17:37:34.413Z,13.58
2022-09-23T17:40:08.789Z,13.48
2022-09-23T17:42:42.327Z,13.40
2022-09-23T17:45:12.804Z,13.29
2022-09-23T17:47:42.066Z,13.21
2022-09-23T17:50:10.560Z,13.11
2022-09-23T17:52:38.990Z,13.02
2022-09-23T17:55:08.129Z,12.92
2022-09-23T17:57:36.324Z,12.84
2022-09-23T18:00:05.232Z,12.75
2022-09-23T18:02:39.864Z,12.67
2022-09-23T18:05:09.136Z,12.58
2022-09-23T18:07:37.705Z,12.52
2022-09-23T18:10:07.419Z,12.45
2022-09-23T18:12:35.852Z,12.39
2022-09-23T18:15:04.484Z,12.33
2022-09-23T18:17:32.940Z,12.28
2022-09-23T18:20:04.514Z,12.22
2022-09-23T18:22:33.267Z,12.17
2022-09-23T18:25:13.107Z,12.11
2022-09-23T18:27:50.851Z,12.04
2022-09-23T18:30:19.443Z,11.96
2022-09-23T18:32:48.712Z,11.89
2022-09-23T18:35:16.984Z,11.82
2022-09-23T18:37:45.034Z,11.75
2022-09-23T18:40:14.895Z,11.69
2022-09-23T18:42:44.279Z,11.63
2022-09-23T18:45:13.634Z,11.57
2022-09-23T18:48:01.332Z,11.51
2022-09-23T18:50:44.029Z,11.45
2022-09-23T18:53:12.452Z,11.38
2022-09-23T18:55:42.024Z,11.31
2022-09-23T18:58:11.269Z,11.24
2022-09-23T19:00:40.175Z,11.17
2022-09-23T19:03:08.594Z,11.09
2022-09-23T19:05:37.465Z,11.02
2022-09-23T19:08:06.087Z,10.96
2022-09-23T19:10:34.501Z,10.89
2022-09-23T19:13:02.926Z,10.84
2022-09-23T19:15:31.054Z,10.79
2022-09-23T19:17:59.685Z,10.73
2022-09-23T19:20:29.570Z,10.68
2022-09-23T19:22:58.173Z,10.63
2022-09-23T19:25:26.281Z,10.59
2022-09-23T19:27:55.008Z,10.54
2022-09-23T19:30:23.357Z,10.48
2022-09-23T19:32:51.958Z,10.42
2022-09-23T19:35:20.588Z,10.37
2022-09-23T19:37:49.719Z,10.33
2022-09-23T19:40:18.117Z,10.29
2022-09-23T19:42:46.681Z,10.25
2022-09-23T19:45:17.536Z,10.20
2022-09-23T19:47:46.173Z,10.16
2022-09-23T19:50:16.117Z,10.12
2022-09-23T19:52:45.001Z,10.08
2022-09-23T19:55:13.670Z,10.04
2022-09-23T19:57:42.621Z,9.99
2022-09-23T20:00:11.745Z,9.94
2022-09-23T20:02:43.583Z,9.88
2022-09-23T20:05:16.237Z,9.82
2022-09-23T20:07:46.829Z,9.76
2022-09-23T20:10:15.905Z,9.72
2022-09-23T20:12:44.441Z,9.69
2022-09-23T20:15:13.147Z,9.66
2022-09-23T20:17:41.283Z,9.64
2022-09-23T20:20:12.398Z,9.62
2022-09-23T20:22:40.964Z,9.59
2022-09-23T20:25:14.829Z,9.58
2022-09-23T20:27:42.998Z,9.57
2022-09-23T20:30:12.113Z,9.56
2022-09-23T20:32:44.511Z,9.55
2022-09-23T20:35:13.695Z,9.54
2022-09-23T20:37:43.119Z,9.54
2022-09-23T20:40:11.341Z,9.51
2022-09-23T20:42:39.496Z,9.49
2022-09-23T20:45:09.255Z,9.49
2022-09-23T20:47:37.860Z,9.48
2022-09-23T20:50:07.514Z,9.48
2022-09-23T20:52:36.389Z,9.47
2022-09-23T20:55:04.950Z,9.45
2022-09-23T20:57:33.842Z,9.42
2022-09-23T21:00:02.908Z,9.42
2022-09-23T21:02:32.565Z,9.40
2022-09-23T21:05:03.723Z,9.40
2022-09-23T21:07:33.447Z,9.38
2022-09-23T21:10:04.946Z,9.36
2022-09-23T21:12:35.363Z,9.36
2022-09-23T21:15:04.988Z,9.34
2022-09-23T21:17:34.679Z,9.33
2022-09-23T21:20:02.943Z,9.32
2022-09-23T21:22:32.672Z,9.30
2022-09-23T21:25:27.013Z,9.28
2022-09-23T21:27:53.555Z,9.26
2022-09-23T21:30:23.519Z,9.24
2022-09-23T21:32:51.986Z,9.23
2022-09-23T21:35:20.753Z,9.21
2022-09-23T21:37:49.955Z,9.19
2022-09-23T21:40:37.293Z,9.18
2022-09-23T21:43:06.111Z,9.16
2022-09-23T21:45:37.320Z,9.14
2022-09-23T21:48:05.900Z,9.10
2022-09-23T21:50:37.347Z,9.05
2022-09-23T21:53:07.373Z,9.00
2022-09-23T21:55:35.438Z,8.94
2022-09-23T21:58:03.361Z,8.91
2022-09-23T22:00:32.020Z,8.88
2022-09-23T22:03:01.238Z,8.86
2022-09-23T22:05:30.381Z,8.84
2022-09-23T22:08:01.641Z,8.82
2022-09-23T22:10:29.664Z,8.79
2022-09-23T22:12:57.720Z,8.76
2022-09-23T22:15:25.844Z,8.73
2022-09-23T22:17:54.856Z,8.71
2022-09-23T22:20:27.008Z,8.68
2022-09-23T22:22:56.398Z,8.64
2022-09-23T22:25:25.102Z,8.60
2022-09-23T22:28:12.048Z,8.56
2022-09-23T22:30:58.730Z,8.52
2022-09-23T22:33:26.846Z,8.48
2022-09-23T22:36:02.286Z,8.44
2022-09-23T22:38:31.598Z,8.42
2022-09-23T22:41:00.318Z,8.40
2022-09-23T22:43:28.466Z,8.37
2022-09-23T22:45:56.477Z,8.34
2022-09-23T22:48:25.466Z,8.31
2022-09-23T22:50:53.461Z,8.28
2022-09-23T22:53:21.432Z,8.26
2022-09-23T22:56:02.228Z,8.23
2022-09-23T22:58:32.685Z,8.20
2022-09-23T23:01:02.551Z,8.16
2022-09-23T23:03:33.162Z,8.14
2022-09-23T23:06:04.357Z,8.11
2022-09-23T23:08:32.601Z,8.08
2022-09-23T23:11:10.183Z,8.05
2022-09-23T23:13:42.046Z,8.03
2022-09-23T23:16:12.805Z,8.01
2022-09-23T23:18:43.351Z,8.01
2022-09-23T23:21:14.826Z,8.01
2022-09-23T23:23:45.501Z,8.01
2022-09-23T23:26:25.588Z,7.99
2022-09-23T23:28:54.548Z,7.95
2022-09-23T23:31:25.242Z,7.92
2022-09-23T23:33:54.782Z,7.89
2022-09-23T23:36:24.076Z,7.85
2022-09-23T23:38:52.124Z,7.82
2022-09-23T23:41:22.780Z,7.78
2022-09-23T23:43:56.680Z,7.75
2022-09-23T23:46:30.272Z,7.74
2022-09-23T23:48:59.827Z,7.73
2022-09-23T23:51:28.589Z,7.72
2022-09-23T23:53:58.827Z,7.72
2022-09-23T23:56:27.650Z,7.70
2022-09-23T23:59:05.138Z,7.70
